Denver, Colorado
Traffic Map
Current Weather Conditions
Denver, Colorado
Clear
Clear
13°
Feels Like: 13°
Wind Chill: 13° Ceiling: Unl
Heat Index: 13° Visibility: 10mi
Dew Point: -13° Wind: 24mph
Humidity: 15% Direction: 300° (WNW)
Pressure: 30.08in Gusts: 37mph
Raw Report DataKBJC 130612Z AUTO 30021G32KT 10SM CLR 13/M13 A3008 RMK AO2
Traffic Incident Summary
Active as of:
Severity:
Category:
InformationThere was an issue retrieving the traffic information for this location. Please try a different location or try again shortly.
Advertisements